Check out our new BloomSky Weather System.

Active alerts

Houston, TX
  Details for Houston, TX Dense Fog Advisory


Thunder radar  blitzortung!


Rain radar more information rain snow radar


Visit our other weather sites:

Template documentation
and downloads

And another site



Weather Underground History page Text

Daily Summary for January 12, 2017 Units:  Metric    English   Both
« Previous Day
Next Day »
Daily Weekly Monthly Yearly Custom
  High: Low: Average:
Temperature: 27.2 °C 19.8 °C 22.7 °C
Dew Point: 20.3 °C 17.9 °C 19.2 °C
Humidity: 96 % 58 % 82 %
Wind Speed: 20.9 km/h 0 km/h 7.2 km/h
Wind Gust: 30.6 km/h - -
Wind:- - SSE
Pressure: 1022.2 hPa 1016.1 hPa -
Precipitation: 0 mm    
Historical Graphs
 
 
Tabular Data for January 12, 2017
Time Temperature Dew Point Pressure Wind Wind Speed Wind Gust Humidity Rainfall Rate (Hourly)
00:02 21.6 °C 19.9 °C 1016.1 hPa SE 12.9 km/h 22.5 km/h 90 % 0 mm
00:07 21.6 °C 20.1 °C 1016.1 hPa South 14.5 km/h 22.5 km/h 91 % 0 mm
00:12 21.5 °C 20 °C 1016.1 hPa SSE 17.7 km/h 22.5 km/h 91 % 0 mm
00:17 21.5 °C 20 °C 1016.1 hPa SE 16.1 km/h 19.3 km/h 91 % 0 mm
00:22 21.5 °C 20 °C 1016.1 hPa SSE 9.7 km/h 19.3 km/h 91 % 0 mm
00:27 21.5 °C 20 °C 1016.1 hPa SE 8 km/h 19.3 km/h 91 % 0 mm
00:32 21.5 °C 20 °C 1016.1 hPa South 4.8 km/h 17.7 km/h 91 % 0 mm
00:37 21.4 °C 19.9 °C 1016.1 hPa South 8 km/h 22.5 km/h 91 % 0 mm
00:42 21.4 °C 19.9 °C 1016.1 hPa South 12.9 km/h 22.5 km/h 91 % 0 mm
00:47 21.4 °C 19.9 °C 1016.1 hPa South 6.4 km/h 22.5 km/h 91 % 0 mm
00:52 21.4 °C 19.9 °C 1016.1 hPa SE 8 km/h 19.3 km/h 91 % 0 mm
00:57 21.4 °C 19.9 °C 1016.1 hPa SE 8 km/h 19.3 km/h 91 % 0 mm
01:02 21.5 °C 19.8 °C 1016.1 hPa South 11.3 km/h 19.3 km/h 90 % 0 mm
01:07 21.6 °C 19.9 °C 1016.1 hPa SSE 8 km/h 20.9 km/h 90 % 0 mm
01:12 21.7 °C 20 °C 1016.1 hPa SE 9.7 km/h 20.9 km/h 90 % 0 mm
01:17 21.7 °C 19.8 °C 1016.1 hPa SSW 12.9 km/h 20.9 km/h 89 % 0 mm
01:22 21.7 °C 19.8 °C 1016.1 hPa SSE 17.7 km/h 20.9 km/h 89 % 0 mm
01:27 21.7 °C 19.8 °C 1016.1 hPa SE 17.7 km/h 20.9 km/h 89 % 0 mm
01:32 21.8 °C 19.9 °C 1016.1 hPa SSE 9.7 km/h 19.3 km/h 89 % 0 mm
01:37 21.8 °C 19.9 °C 1016.1 hPa South 6.4 km/h 24.1 km/h 89 % 0 mm
01:42 21.8 °C 19.9 °C 1016.1 hPa SSE 8 km/h 24.1 km/h 89 % 0 mm
01:47 21.8 °C 19.9 °C 1016.1 hPa South 9.7 km/h 24.1 km/h 89 % 0 mm
01:52 21.8 °C 19.7 °C 1016.1 hPa SE 14.5 km/h 22.5 km/h 88 % 0 mm
01:57 21.8 °C 19.7 °C 1016.1 hPa SSW 4.8 km/h 22.5 km/h 88 % 0 mm
02:02 21.8 °C 19.7 °C 1016.1 hPa SSE 8 km/h 20.9 km/h 88 % 0 mm
02:07 21.8 °C 19.7 °C 1016.1 hPa South 12.9 km/h 17.7 km/h 88 % 0 mm
02:12 21.8 °C 19.7 °C 1016.5 hPa ESE 8 km/h 19.3 km/h 88 % 0 mm
02:17 21.8 °C 19.7 °C 1016.1 hPa SW 6.4 km/h 19.3 km/h 88 % 0 mm
02:22 21.8 °C 19.7 °C 1016.5 hPa South 8 km/h 19.3 km/h 88 % 0 mm
02:27 21.8 °C 19.7 °C 1016.1 hPa SSW 16.1 km/h 17.7 km/h 88 % 0 mm
02:32 21.9 °C 19.8 °C 1016.1 hPa South 11.3 km/h 25.7 km/h 88 % 0 mm
02:37 21.9 °C 19.8 °C 1016.1 hPa SSE 12.9 km/h 25.7 km/h 88 % 0 mm
02:42 21.8 °C 19.7 °C 1016.1 hPa SSW 3.2 km/h 25.7 km/h 88 % 0 mm
02:47 21.8 °C 19.7 °C 1016.1 hPa ESE 11.3 km/h 25.7 km/h 88 % 0 mm
02:52 21.7 °C 19.6 °C 1016.5 hPa SE 9.7 km/h 25.7 km/h 88 % 0 mm
02:57 21.7 °C 19.8 °C 1016.5 hPa SE 9.7 km/h 19.3 km/h 89 % 0 mm
03:02 21.6 °C 19.7 °C 1016.5 hPa South 8 km/h 19.3 km/h 89 % 0 mm
03:07 21.6 °C 19.7 °C 1016.5 hPa SE 9.7 km/h 19.3 km/h 89 % 0 mm
03:12 21.5 °C 19.6 °C 1016.5 hPa SSE 3.2 km/h 17.7 km/h 89 % 0 mm
03:17 21.4 °C 19.5 °C 1016.5 hPa SSE 6.4 km/h 17.7 km/h 89 % 0 mm
03:22 21.3 °C 19.6 °C 1016.5 hPa SSW 3.2 km/h 16.1 km/h 90 % 0 mm
03:27 21.2 °C 19.5 °C 1016.5 hPa ESE 11.3 km/h 14.5 km/h 90 % 0 mm
03:32 21.1 °C 19.6 °C 1016.5 hPa SE 1.6 km/h 11.3 km/h 91 % 0 mm
03:38 20.9 °C 19.4 °C 1016.8 hPa SSW 4.8 km/h 11.3 km/h 91 % 0 mm
03:43 20.9 °C 19.4 °C 1016.5 hPa SE 6.4 km/h 11.3 km/h 91 % 0 mm
03:48 20.8 °C 19.5 °C 1016.5 hPa South 4.8 km/h 11.3 km/h 92 % 0 mm
03:53 20.8 °C 19.5 °C 1016.5 hPa SE 6.4 km/h 11.3 km/h 92 % 0 mm
03:58 20.7 °C 19.4 °C 1016.5 hPa SSE 3.2 km/h 9.7 km/h 92 % 0 mm
04:03 20.6 °C 19.4 °C 1016.5 hPa SSE 3.2 km/h 9.7 km/h 93 % 0 mm
04:08 20.6 °C 19.4 °C 1016.5 hPa SE 4.8 km/h 9.7 km/h 93 % 0 mm
04:13 20.5 °C 19.3 °C 1016.5 hPa SE 3.2 km/h 11.3 km/h 93 % 0 mm
04:18 20.5 °C 19.3 °C 1016.5 hPa South 8 km/h 11.3 km/h 93 % 0 mm
04:23 20.5 °C 19.5 °C 1016.5 hPa South 4.8 km/h 11.3 km/h 94 % 0 mm
04:28 20.5 °C 19.5 °C 1016.5 hPa SSE 4.8 km/h 11.3 km/h 94 % 0 mm
04:33 20.5 °C 19.5 °C 1016.5 hPa South 6.4 km/h 11.3 km/h 94 % 0 mm
04:38 20.5 °C 19.5 °C 1016.5 hPa SSE 8 km/h 11.3 km/h 94 % 0 mm
04:43 20.5 °C 19.5 °C 1016.5 hPa SE 6.4 km/h 22.5 km/h 94 % 0 mm
04:48 20.4 °C 19.4 °C 1016.5 hPa South 4.8 km/h 22.5 km/h 94 % 0 mm
04:53 20.3 °C 19.3 °C 1016.5 hPa SSE 6.4 km/h 22.5 km/h 94 % 0 mm
04:58 20.3 °C 19.3 °C 1016.5 hPa South 4.8 km/h 12.9 km/h 94 % 0 mm
05:03 20.3 °C 19.5 °C 1016.5 hPa South 3.2 km/h 14.5 km/h 95 % 0 mm
05:08 20.3 °C 19.5 °C 1016.5 hPa SSW 8 km/h 14.5 km/h 95 % 0 mm
05:13 20.3 °C 19.5 °C 1016.5 hPa South 4.8 km/h 14.5 km/h 95 % 0 mm
05:18 20.3 °C 19.5 °C 1016.5 hPa SSE 4.8 km/h 11.3 km/h 95 % 0 mm
05:23 20.3 °C 19.5 °C 1016.5 hPa SSW 4.8 km/h 11.3 km/h 95 % 0 mm
05:28 20.3 °C 19.5 °C 1016.5 hPa SSE 4.8 km/h 11.3 km/h 95 % 0 mm
05:33 20.3 °C 19.5 °C 1016.8 hPa SSE 9.7 km/h 11.3 km/h 95 % 0 mm
05:38 20.3 °C 19.5 °C 1016.8 hPa SSE 3.2 km/h 9.7 km/h 95 % 0 mm
05:43 20.3 °C 19.5 °C 1016.8 hPa SSE 6.4 km/h 11.3 km/h 95 % 0 mm
05:48 20.2 °C 19.4 °C 1016.8 hPa SSE 4.8 km/h 11.3 km/h 95 % 0 mm
05:53 20.2 °C 19.4 °C 1016.8 hPa ESE 3.2 km/h 11.3 km/h 95 % 0 mm
05:58 20.1 °C 19.3 °C 1016.8 hPa SSE 3.2 km/h 9.7 km/h 95 % 0 mm
06:03 20 °C 19.2 °C 1016.8 hPa SSE 4.8 km/h 8 km/h 95 % 0 mm
06:08 19.9 °C 19.1 °C 1016.8 hPa SE 8 km/h 8 km/h 95 % 0 mm
06:13 19.9 °C 19.2 °C 1017.2 hPa ESE 6.4 km/h 9.7 km/h 96 % 0 mm
06:18 19.9 °C 19.2 °C 1017.2 hPa SE 3.2 km/h 9.7 km/h 96 % 0 mm
06:23 19.9 °C 19.2 °C 1017.2 hPa SE 1.6 km/h 9.7 km/h 96 % 0 mm
06:28 19.9 °C 19.2 °C 1017.2 hPa SSE 3.2 km/h 8 km/h 96 % 0 mm
06:33 19.9 °C 19.2 °C 1017.2 hPa SE 1.6 km/h 8 km/h 96 % 0 mm
06:38 19.9 °C 19.2 °C 1017.2 hPa South 3.2 km/h 6.4 km/h 96 % 0 mm
06:43 19.9 °C 19.2 °C 1017.2 hPa SSE 3.2 km/h 6.4 km/h 96 % 0 mm
06:48 19.8 °C 19.1 °C 1017.5 hPa SE 8 km/h 9.7 km/h 96 % 0 mm
06:53 19.8 °C 19.1 °C 1017.2 hPa SSW 6.4 km/h 9.7 km/h 96 % 0 mm
06:58 19.8 °C 19.1 °C 1017.2 hPa SSE 1.6 km/h 9.7 km/h 96 % 0 mm
07:03 19.8 °C 19.1 °C 1017.2 hPa SSE 3.2 km/h 8 km/h 96 % 0 mm
07:08 19.8 °C 19.1 °C 1017.2 hPa ESE 6.4 km/h 8 km/h 96 % 0 mm
07:14 19.8 °C 19.1 °C 1017.5 hPa ESE 4.8 km/h 9.7 km/h 96 % 0 mm
07:19 19.8 °C 19.1 °C 1017.5 hPa SE 4.8 km/h 9.7 km/h 96 % 0 mm
07:24 19.8 °C 19.1 °C 1017.8 hPa SSE 3.2 km/h 11.3 km/h 96 % 0 mm
07:29 19.8 °C 19.1 °C 1017.8 hPa ESE 3.2 km/h 11.3 km/h 96 % 0 mm
07:34 19.8 °C 19.1 °C 1017.8 hPa SSE 3.2 km/h 11.3 km/h 96 % 0 mm
07:39 19.9 °C 19.2 °C 1018.2 hPa SE 6.4 km/h 9.7 km/h 96 % 0 mm
07:44 19.9 °C 19.2 °C 1018.2 hPa SSE 3.2 km/h 9.7 km/h 96 % 0 mm
07:49 19.9 °C 19.2 °C 1018.2 hPa SSE 4.8 km/h 8 km/h 96 % 0 mm
07:54 19.9 °C 19.1 °C 1018.2 hPa SSE 1.6 km/h 8 km/h 95 % 0 mm
07:59 20 °C 19.2 °C 1018.2 hPa SSE 3.2 km/h 9.7 km/h 95 % 0 mm
08:04 20.1 °C 19.3 °C 1018.2 hPa SSE 3.2 km/h 9.7 km/h 95 % 0 mm
08:09 20.1 °C 19.3 °C 1018.5 hPa SSE 3.2 km/h 9.7 km/h 95 % 0 mm
08:14 20.2 °C 19.4 °C 1018.5 hPa SE 3.2 km/h 11.3 km/h 95 % 0 mm
08:19 20.3 °C 19.5 °C 1018.5 hPa SSW 6.4 km/h 11.3 km/h 95 % 0 mm
08:24 20.3 °C 19.5 °C 1018.5 hPa SE 6.4 km/h 11.3 km/h 95 % 0 mm
08:29 20.4 °C 19.4 °C 1018.5 hPa SE 4.8 km/h 9.7 km/h 94 % 0 mm
08:34 20.6 °C 19.6 °C 1018.8 hPa SSE 8 km/h 9.7 km/h 94 % 0 mm
08:39 20.7 °C 19.7 °C 1018.8 hPa SE 3.2 km/h 9.7 km/h 94 % 0 mm
08:44 20.9 °C 19.9 °C 1018.8 hPa East 6.4 km/h 12.9 km/h 94 % 0 mm
08:49 21 °C 19.8 °C 1018.8 hPa ESE 1.6 km/h 12.9 km/h 93 % 0 mm
08:54 21.1 °C 19.9 °C 1019.2 hPa ESE 8 km/h 12.9 km/h 93 % 0 mm
08:59 21.1 °C 19.7 °C 1019.2 hPa SSE 9.7 km/h 11.3 km/h 92 % 0 mm
09:04 21.2 °C 19.8 °C 1019.2 hPa SE 3.2 km/h 12.9 km/h 92 % 0 mm
09:09 21.3 °C 19.9 °C 1019.5 hPa ESE 4.8 km/h 12.9 km/h 92 % 0 mm
09:14 21.4 °C 19.9 °C 1019.5 hPa South 6.4 km/h 16.1 km/h 91 % 0 mm
09:19 21.6 °C 20.1 °C 1019.5 hPa ESE 9.7 km/h 16.1 km/h 91 % 0 mm
09:24 21.7 °C 20 °C 1019.9 hPa SE 9.7 km/h 16.1 km/h 90 % 0 mm
09:29 21.9 °C 20 °C 1019.9 hPa South 9.7 km/h 16.1 km/h 89 % 0 mm
09:34 22 °C 20.1 °C 1019.9 hPa SSW 9.7 km/h 20.9 km/h 89 % 0 mm
09:39 22.2 °C 20.1 °C 1019.9 hPa SE 9.7 km/h 20.9 km/h 88 % 0 mm
09:44 22.4 °C 20.3 °C 1019.9 hPa SSE 6.4 km/h 20.9 km/h 88 % 0 mm
09:50 22.6 °C 20.1 °C 1019.9 hPa East 20.9 km/h 20.9 km/h 86 % 0 mm
09:55 22.9 °C 20.2 °C 1019.9 hPa SW 16.1 km/h 20.9 km/h 85 % 0 mm
10:00 23.2 °C 20.3 °C 1019.9 hPa SSE 6.4 km/h 20.9 km/h 84 % 0 mm
10:05 23.4 °C 20 °C 1019.9 hPa SSE 12.9 km/h 20.9 km/h 81 % 0 mm
10:10 23.6 °C 20.1 °C 1020.2 hPa SSW 4.8 km/h 20.9 km/h 81 % 0 mm
10:15 23.6 °C 19.9 °C 1020.2 hPa South 9.7 km/h 20.9 km/h 80 % 0 mm
10:20 23.7 °C 20 °C 1020.2 hPa SSW 12.9 km/h 22.5 km/h 80 % 0 mm
10:25 23.9 °C 19.8 °C 1020.2 hPa SSW 9.7 km/h 22.5 km/h 78 % 0 mm
10:30 24 °C 19.7 °C 1020.2 hPa South 8 km/h 22.5 km/h 77 % 0 mm
10:35 24.2 °C 19.9 °C 1020.2 hPa South 11.3 km/h 19.3 km/h 77 % 0 mm
10:40 24.5 °C 19.8 °C 1020.2 hPa SSE 16.1 km/h 19.3 km/h 75 % 0 mm
10:45 24.7 °C 19.5 °C 1020.2 hPa South 12.9 km/h 20.9 km/h 73 % 0 mm
10:50 24.9 °C 19.3 °C 1020.2 hPa SSW 14.5 km/h 24.1 km/h 71 % 0 mm
10:55 25 °C 19.4 °C 1020.2 hPa SSE 12.9 km/h 24.1 km/h 71 % 0 mm
11:00 25.2 °C 19.1 °C 1020.2 hPa SSW 11.3 km/h 24.1 km/h 69 % 0 mm
11:05 25.3 °C 18.7 °C 1020.2 hPa SE 16.1 km/h 27.4 km/h 67 % 0 mm
11:10 25.3 °C 18.7 °C 1020.2 hPa SE 19.3 km/h 30.6 km/h 67 % 0 mm
11:15 25.4 °C 18.8 °C 1020.2 hPa SE 9.7 km/h 30.6 km/h 67 % 0 mm
11:20 25.5 °C 18.4 °C 1020.2 hPa SSE 12.9 km/h 30.6 km/h 65 % 0 mm
11:25 25.4 °C 18.6 °C 1020.2 hPa SSE 11.3 km/h 22.5 km/h 66 % 0 mm
11:30 25.6 °C 18.5 °C 1020.2 hPa SE 11.3 km/h 22.5 km/h 65 % 0 mm
11:35 25.7 °C 18.6 °C 1019.9 hPa SSE 12.9 km/h 22.5 km/h 65 % 0 mm
11:40 25.8 °C 18.5 °C 1019.9 hPa SE 8 km/h 20.9 km/h 64 % 0 mm
11:45 26.1 °C 18.5 °C 1019.9 hPa SSE 12.9 km/h 22.5 km/h 63 % 0 mm
11:50 26.3 °C 18.7 °C 1019.9 hPa South 16.1 km/h 22.5 km/h 63 % 0 mm
11:55 26.3 °C 18.7 °C 1019.9 hPa SW 4.8 km/h 22.5 km/h 63 % 0 mm
12:00 26.1 °C 18.8 °C 1019.9 hPa SSE 9.7 km/h 19.3 km/h 64 % 0 mm
12:05 26.1 °C 18.8 °C 1019.5 hPa SSW 12.9 km/h 19.3 km/h 64 % 0 mm
12:10 25.9 °C 18.6 °C 1019.5 hPa SE 12.9 km/h 20.9 km/h 64 % 0 mm
12:15 26.1 °C 18.8 °C 1019.5 hPa South 4.8 km/h 20.9 km/h 64 % 0 mm
12:20 26 °C 18.7 °C 1019.5 hPa SSW 9.7 km/h 24.1 km/h 64 % 0 mm
12:25 26 °C 18.4 °C 1019.5 hPa SSE 9.7 km/h 24.1 km/h 63 % 0 mm
12:30 25.8 °C 18.2 °C 1019.2 hPa SSE 8 km/h 24.1 km/h 63 % 0 mm
12:35 25.9 °C 18.6 °C 1019.2 hPa SSE 8 km/h 19.3 km/h 64 % 0 mm
12:40 26.3 °C 18.7 °C 1019.2 hPa SE 11.3 km/h 19.3 km/h 63 % 0 mm
12:45 26.5 °C 18.6 °C 1018.8 hPa SE 11.3 km/h 19.3 km/h 62 % 0 mm
12:51 26.5 °C 18.6 °C 1018.8 hPa SSW 9.7 km/h 17.7 km/h 62 % 0 mm
12:56 26.4 °C 18.5 °C 1018.8 hPa SE 19.3 km/h 19.3 km/h 62 % 0 mm
13:01 26.3 °C 18.4 °C 1018.8 hPa SSW 9.7 km/h 20.9 km/h 62 % 0 mm
13:06 26.5 °C 18.6 °C 1018.8 hPa SSE 8 km/h 20.9 km/h 62 % 0 mm
13:11 26.6 °C 17.9 °C 1018.8 hPa SSE 4.8 km/h 22.5 km/h 59 % 0 mm
13:16 26.4 °C 18 °C 1018.8 hPa ESE 11.3 km/h 22.5 km/h 60 % 0 mm
13:21 26.5 °C 18.4 °C 1018.5 hPa SSE 9.7 km/h 22.5 km/h 61 % 0 mm
13:26 26.4 °C 18 °C 1018.8 hPa SSW 9.7 km/h 29 km/h 60 % 0 mm
13:31 26.6 °C 18.5 °C 1018.5 hPa SSE 6.4 km/h 29 km/h 61 % 0 mm
13:36 27 °C 18 °C 1018.5 hPa SE 4.8 km/h 29 km/h 58 % 0 mm
13:41 27 °C 18 °C 1018.5 hPa SE 9.7 km/h 19.3 km/h 58 % 0 mm
13:46 26.6 °C 17.9 °C 1018.5 hPa East 9.7 km/h 20.9 km/h 59 % 0 mm
13:51 26.7 °C 18 °C 1018.5 hPa South 11.3 km/h 20.9 km/h 59 % 0 mm
13:56 26.7 °C 18 °C 1018.5 hPa SSE 12.9 km/h 22.5 km/h 59 % 0 mm
14:01 26.9 °C 18.2 °C 1018.5 hPa ESE 8 km/h 22.5 km/h 59 % 0 mm
14:06 26.7 °C 18.6 °C 1018.5 hPa South 8 km/h 22.5 km/h 61 % 0 mm
14:11 26.8 °C 18.4 °C 1018.5 hPa SE 11.3 km/h 20.9 km/h 60 % 0 mm
14:16 26.4 °C 18.3 °C 1018.5 hPa SSE 8 km/h 29 km/h 61 % 0 mm
14:21 26.3 °C 18.4 °C 1018.5 hPa SSW 9.7 km/h 29 km/h 62 % 0 mm
14:26 26.4 °C 18.5 °C 1018.5 hPa SSW 4.8 km/h 29 km/h 62 % 0 mm
14:31 26.6 °C 18.5 °C 1018.5 hPa South 8 km/h 20.9 km/h 61 % 0 mm
14:36 26.7 °C 18.3 °C 1018.5 hPa SE 12.9 km/h 20.9 km/h 60 % 0 mm
14:41 27.1 °C 18.4 °C 1018.5 hPa SE 9.7 km/h 20.9 km/h 59 % 0 mm
14:46 27.1 °C 18.4 °C 1018.5 hPa SE 9.7 km/h 19.3 km/h 59 % 0 mm
14:51 27.1 °C 18.4 °C 1018.5 hPa SE 11.3 km/h 19.3 km/h 59 % 0 mm
14:56 27.1 °C 18.4 °C 1018.5 hPa ESE 9.7 km/h 19.3 km/h 59 % 0 mm
15:01 27.2 °C 18.5 °C 1018.5 hPa East 11.3 km/h 22.5 km/h 59 % 0 mm
15:06 27.2 °C 18.5 °C 1018.5 hPa ESE 8 km/h 22.5 km/h 59 % 0 mm
15:11 27 °C 18.3 °C 1018.5 hPa SE 14.5 km/h 22.5 km/h 59 % 0 mm
15:16 26.7 °C 18 °C 1018.5 hPa SSE 8 km/h 17.7 km/h 59 % 0 mm
15:21 26.6 °C 18.2 °C 1018.5 hPa NE 4.8 km/h 17.7 km/h 60 % 0 mm
15:26 26.8 °C 18.4 °C 1018.5 hPa SSE 8 km/h 14.5 km/h 60 % 0 mm
15:31 26.9 °C 18.2 °C 1018.5 hPa SSE 9.7 km/h 20.9 km/h 59 % 0 mm
15:36 26.8 °C 18.4 °C 1018.8 hPa SE 8 km/h 20.9 km/h 60 % 0 mm
15:41 26.5 °C 18.6 °C 1018.8 hPa SE 3.2 km/h 20.9 km/h 62 % 0 mm
15:46 26.3 °C 18.4 °C 1018.8 hPa SE 6.4 km/h 19.3 km/h 62 % 0 mm
15:51 26.2 °C 18.6 °C 1018.8 hPa SSE 1.6 km/h 19.3 km/h 63 % 0 mm
15:56 26.5 °C 18.4 °C 1018.8 hPa South 6.4 km/h 16.1 km/h 61 % 0 mm
16:01 26.5 °C 18.4 °C 1018.8 hPa SE 12.9 km/h 19.3 km/h 61 % 0 mm
16:06 26.3 °C 18.4 °C 1018.8 hPa SE 16.1 km/h 20.9 km/h 62 % 0 mm
16:11 26.1 °C 18.5 °C 1018.8 hPa SE 6.4 km/h 20.9 km/h 63 % 0 mm
16:16 26.1 °C 18.5 °C 1018.8 hPa East 6.4 km/h 20.9 km/h 63 % 0 mm
16:21 26 °C 18.4 °C 1018.8 hPa SE 8 km/h 17.7 km/h 63 % 0 mm
16:26 26 °C 18.7 °C 1019.2 hPa ESE 12.9 km/h 17.7 km/h 64 % 0 mm
16:31 26.1 °C 18.8 °C 1018.8 hPa ESE 9.7 km/h 20.9 km/h 64 % 0 mm
16:36 25.9 °C 18.6 °C 1019.2 hPa SSE 9.7 km/h 20.9 km/h 64 % 0 mm
16:41 25.8 °C 18.5 °C 1018.8 hPa SSW 14.5 km/h 20.9 km/h 64 % 0 mm
16:46 25.6 °C 18.5 °C 1019.2 hPa SSE 11.3 km/h 20.9 km/h 65 % 0 mm
16:51 25.4 °C 18.3 °C 1019.2 hPa SW 6.4 km/h 20.9 km/h 65 % 0 mm
16:56 25.2 °C 18.4 °C 1019.2 hPa East 14.5 km/h 20.9 km/h 66 % 0 mm
17:01 25.1 °C 18.3 °C 1019.2 hPa SSE 11.3 km/h 19.3 km/h 66 % 0 mm
17:06 25 °C 18.4 °C 1019.2 hPa South 11.3 km/h 22.5 km/h 67 % 0 mm
17:12 24.9 °C 18.3 °C 1019.2 hPa South 9.7 km/h 22.5 km/h 67 % 0 mm
17:16 24.8 °C 18.3 °C 1019.2 hPa SE 6.4 km/h 22.5 km/h 67 % 0 mm
17:22 24.7 °C 18.4 °C 1019.5 hPa ESE 4.8 km/h 19.3 km/h 68 % 0 mm
17:27 24.6 °C 18.5 °C 1019.5 hPa SSE 8 km/h 17.7 km/h 69 % 0 mm
17:32 24.4 °C 18.6 °C 1019.5 hPa SSE 11.3 km/h 17.7 km/h 70 % 0 mm
17:37 24.3 °C 18.5 °C 1019.5 hPa SE 6.4 km/h 17.7 km/h 70 % 0 mm
17:41 24.2 °C 18.6 °C 1019.5 hPa SSE 4.8 km/h 17.7 km/h 71 % 0 mm
17:46 24.1 °C 18.7 °C 1019.5 hPa SE 6.4 km/h 14.5 km/h 72 % 0 mm
17:52 23.9 °C 18.5 °C 1019.5 hPa ESE 9.7 km/h 11.3 km/h 72 % 0 mm
17:57 23.9 °C 18.5 °C 1019.9 hPa SSE 4.8 km/h 16.1 km/h 72 % 0 mm
18:02 23.8 °C 18.4 °C 1019.9 hPa SE 8 km/h 16.1 km/h 72 % 0 mm
18:07 23.7 °C 18.6 °C 1019.9 hPa SW 6.4 km/h 17.7 km/h 73 % 0 mm
18:12 23.5 °C 18.4 °C 1019.9 hPa ESE 4.8 km/h 17.7 km/h 73 % 0 mm
18:17 23.4 °C 18.3 °C 1019.9 hPa SSE 6.4 km/h 17.7 km/h 73 % 0 mm
18:22 23.3 °C 18.2 °C 1020.2 hPa SE 6.4 km/h 14.5 km/h 73 % 0 mm
18:27 23.2 °C 18.3 °C 1020.2 hPa SE 6.4 km/h 12.9 km/h 74 % 0 mm
18:32 23.1 °C 18.4 °C 1020.2 hPa East 4.8 km/h 11.3 km/h 75 % 0 mm
18:37 22.9 °C 18.4 °C 1020.2 hPa SE 4.8 km/h 11.3 km/h 76 % 0 mm
18:42 22.8 °C 18.3 °C 1020.2 hPa ESE 9.7 km/h 11.3 km/h 76 % 0 mm
18:47 22.8 °C 18.6 °C 1020.2 hPa ESE 4.8 km/h 14.5 km/h 77 % 0 mm
18:52 22.7 °C 18.5 °C 1020.2 hPa SE 4.8 km/h 14.5 km/h 77 % 0 mm
18:57 22.6 °C 18.6 °C 1020.2 hPa SSE 1.6 km/h 14.5 km/h 78 % 0 mm
19:02 22.5 °C 18.7 °C 1020.5 hPa SE 1.6 km/h 9.7 km/h 79 % 0 mm
19:07 22.4 °C 18.8 °C 1020.5 hPa SSE 1.6 km/h 9.7 km/h 80 % 0 mm
19:12 22.3 °C 18.7 °C 1020.5 hPa SE 4.8 km/h 11.3 km/h 80 % 0 mm
19:17 22.2 °C 18.8 °C 1020.5 hPa ESE 3.2 km/h 11.3 km/h 81 % 0 mm
19:22 22.2 °C 18.8 °C 1020.9 hPa SE 4.8 km/h 11.3 km/h 81 % 0 mm
19:27 22.1 °C 18.9 °C 1020.9 hPa SE 1.6 km/h 9.7 km/h 82 % 0 mm
19:32 22.1 °C 19.1 °C 1020.9 hPa ESE 8 km/h 9.7 km/h 83 % 0 mm
19:37 22 °C 19 °C 1020.9 hPa East 6.4 km/h 11.3 km/h 83 % 0 mm
19:42 21.9 °C 18.9 °C 1020.9 hPa SE 3.2 km/h 11.3 km/h 83 % 0 mm
19:47 21.8 °C 18.8 °C 1021.2 hPa SE 1.6 km/h 11.3 km/h 83 % 0 mm
19:52 21.7 °C 18.9 °C 1021.2 hPa ESE 1.6 km/h 8 km/h 84 % 0 mm
19:57 21.5 °C 18.7 °C 1021.2 hPa ESE 3.2 km/h 4.8 km/h 84 % 0 mm
20:02 21.4 °C 18.8 °C 1021.2 hPa ESE 3.2 km/h 4.8 km/h 85 % 0 mm
20:07 21.3 °C 18.9 °C 1021.2 hPa SE 1.6 km/h 4.8 km/h 86 % 0 mm
20:12 21.2 °C 18.8 °C 1021.2 hPa ESE 1.6 km/h 8 km/h 86 % 0 mm
20:17 21.1 °C 18.9 °C 1021.6 hPa Calm   8 km/h 87 % 0 mm
20:21 20.9 °C 18.8 °C 1021.6 hPa SSE 3.2 km/h 8 km/h 88 % 0 mm
20:26 20.9 °C 19 °C 1021.6 hPa ESE 1.6 km/h 6.4 km/h 89 % 0 mm
20:31 20.8 °C 19.1 °C 1021.6 hPa ESE 1.6 km/h 6.4 km/h 90 % 0 mm
20:37 20.8 °C 19.1 °C 1021.6 hPa ESE 4.8 km/h 6.4 km/h 90 % 0 mm
20:42 20.7 °C 19.2 °C 1021.6 hPa SSE 3.2 km/h 8 km/h 91 % 0 mm
20:47 20.6 °C 19.1 °C 1021.6 hPa ESE 3.2 km/h 8 km/h 91 % 0 mm
20:52 20.6 °C 19.3 °C 1021.6 hPa East 3.2 km/h 8 km/h 92 % 0 mm
20:57 20.4 °C 19.2 °C 1021.6 hPa ESE 4.8 km/h 8 km/h 93 % 0 mm
21:02 20.5 °C 19.3 °C 1021.6 hPa ESE 9.7 km/h 11.3 km/h 93 % 0 mm
21:07 20.4 °C 19.4 °C 1021.6 hPa ESE 4.8 km/h 11.3 km/h 94 % 0 mm
21:12 20.5 °C 19.5 °C 1021.9 hPa SSE 4.8 km/h 11.3 km/h 94 % 0 mm
21:17 20.5 °C 19.5 °C 1021.9 hPa East 4.8 km/h 14.5 km/h 94 % 0 mm
21:22 20.5 °C 19.5 °C 1021.9 hPa ESE 3.2 km/h 14.5 km/h 94 % 0 mm
21:27 20.4 °C 19.6 °C 1021.9 hPa SE 3.2 km/h 14.5 km/h 95 % 0 mm
21:32 20.4 °C 19.6 °C 1021.9 hPa SE 4.8 km/h 14.5 km/h 95 % 0 mm
21:37 20.4 °C 19.6 °C 1021.9 hPa ESE 1.6 km/h 14.5 km/h 95 % 0 mm
21:42 20.4 °C 19.6 °C 1021.9 hPa ESE 3.2 km/h 12.9 km/h 95 % 0 mm
21:47 20.4 °C 19.6 °C 1022.2 hPa East 4.8 km/h 11.3 km/h 95 % 0 mm
21:52 20.4 °C 19.6 °C 1021.9 hPa SSE 6.4 km/h 11.3 km/h 95 % 0 mm
21:57 20.4 °C 19.6 °C 1021.9 hPa ESE 4.8 km/h 11.3 km/h 95 % 0 mm
22:02 20.4 °C 19.6 °C 1022.2 hPa SE 6.4 km/h 12.9 km/h 95 % 0 mm
22:07 20.5 °C 19.7 °C 1022.2 hPa East 6.4 km/h 12.9 km/h 95 % 0 mm
22:12 20.5 °C 19.7 °C 1022.2 hPa ESE 4.8 km/h 12.9 km/h 95 % 0 mm
22:17 20.6 °C 19.9 °C 1022.2 hPa SE 8 km/h 11.3 km/h 96 % 0 mm
22:22 20.6 °C 19.9 °C 1022.2 hPa SE 1.6 km/h 11.3 km/h 96 % 0 mm
22:27 20.6 °C 19.8 °C 1022.2 hPa East 3.2 km/h 11.3 km/h 95 % 0 mm
22:32 20.6 °C 19.9 °C 1022.2 hPa ESE 1.6 km/h 9.7 km/h 96 % 0 mm
22:37 20.7 °C 20 °C 1022.2 hPa SE 3.2 km/h 9.7 km/h 96 % 0 mm
22:42 20.7 °C 20 °C 1022.2 hPa SE 3.2 km/h 9.7 km/h 96 % 0 mm
22:47 20.7 °C 20 °C 1022.2 hPa SE 6.4 km/h 9.7 km/h 96 % 0 mm
22:52 20.7 °C 20 °C 1022.2 hPa ESE 3.2 km/h 9.7 km/h 96 % 0 mm
22:57 20.8 °C 20.1 °C 1022.2 hPa SE 4.8 km/h 9.7 km/h 96 % 0 mm
23:02 20.8 °C 20.1 °C 1022.2 hPa East 4.8 km/h 9.7 km/h 96 % 0 mm
23:07 20.8 °C 20.1 °C 1022.2 hPa ESE 4.8 km/h 9.7 km/h 96 % 0 mm
23:12 20.8 °C 20.1 °C 1022.2 hPa East 4.8 km/h 9.7 km/h 96 % 0 mm
23:17 20.8 °C 20.1 °C 1022.2 hPa SSE 3.2 km/h 9.7 km/h 96 % 0 mm
23:22 20.8 °C 20.1 °C 1022.2 hPa East 3.2 km/h 9.7 km/h 96 % 0 mm
23:27 20.8 °C 20.1 °C 1022.2 hPa East 9.7 km/h 9.7 km/h 96 % 0 mm
23:32 20.8 °C 20.1 °C 1022.2 hPa ESE 6.4 km/h 9.7 km/h 96 % 0 mm
23:37 20.8 °C 20.1 °C 1022.2 hPa East 4.8 km/h 9.7 km/h 96 % 0 mm
23:42 20.8 °C 20.1 °C 1022.2 hPa East 4.8 km/h 9.7 km/h 96 % 0 mm
23:47 20.8 °C 20.1 °C 1022.2 hPa ESE 6.4 km/h 9.7 km/h 96 % 0 mm
23:52 20.9 °C 20.2 °C 1022.2 hPa ESE 8 km/h 9.7 km/h 96 % 0 mm
23:57 20.9 °C 20.2 °C 1022.2 hPa ESE 4.8 km/h 12.9 km/h 96 % 0 mm
Spring, Texas: Villages of Bridgestone
Compliments of Weather Underground - 2.75 mb

Script developed by  Jim McMurry - jmcmurry@mwt.net Adapted for the template by  Wim van der Kuil - Leuven-Template.eu

You find our weather info also at:

UK Metoffice

WeatherCloud

Weather Underground

Mid-South Weather Network

AWEKAS

Citizen Weather Observer Program (CWOP)

HAMweather, WeatherForYou, PWS Weather

Equipment we use:

Weather-station
Davis Vantage Vue

Weather-program
Meteohub

Weather-server
Debian 7.9 x86 (Guest)

Provider
DreamHost

Davis Vantage Vue

Meteohub

Debian 7.9 x86 (Guest)

DreamHost